Time;durP1;ratioP1;P1;durP2;ratioP2;P2;SDS_P1;SDS_P2;PMS_P1;PMS_P2;Temp;Humidity;BMP_temperature;BMP_pressure;BME280_temperature;BME280_humidity;BME280_pressure;Samples;Min_cycle;Max_cycle;Signal;HPM_P1;HPM_P2
2023/12/04 00:01:58;;;;;;;3.95;3.38;;;;;;;21.14;22.90;100560.25;4587576;27;20689;-52
2023/12/04 00:04:08;;;;;;;3.70;3.20;;;;;;;21.13;22.70;100553.72;4587524;27;20036;-51
2023/12/04 00:06:19;;;;;;;3.15;2.70;;;;;;;21.12;22.92;100554.91;4586144;27;20027;-52
2023/12/04 00:08:29;;;;;;;3.42;2.80;;;;;;;21.13;23.05;100541.38;4586286;27;20182;-53
2023/12/04 00:10:39;;;;;;;3.45;2.90;;;;;;;21.12;22.79;100546.28;4578451;27;20127;-54
2023/12/04 00:12:51;;;;;;;3.53;3.05;;;;;;;21.13;23.14;100535.66;4588088;27;20020;-54
2023/12/04 00:15:01;;;;;;;3.67;3.00;;;;;;;21.12;22.84;100537.69;4585688;27;20079;-53
2023/12/04 00:17:12;;;;;;;3.60;3.10;;;;;;;21.12;23.25;100523.31;4586469;27;20047;-54
2023/12/04 00:19:23;;;;;;;3.70;2.88;;;;;;;21.11;23.28;100521.66;4587623;27;20047;-52
2023/12/04 00:21:33;;;;;;;3.28;2.70;;;;;;;21.12;23.10;100517.59;4586517;27;20496;-54
2023/12/04 00:23:43;;;;;;;2.92;2.63;;;;;;;21.12;23.22;100514.72;4585525;27;20040;-55
2023/12/04 00:25:55;;;;;;;3.20;2.72;;;;;;;21.11;23.01;100507.31;4586299;27;20035;-55
2023/12/04 00:28:05;;;;;;;3.97;3.00;;;;;;;21.11;23.07;100503.59;4567403;27;20087;-54
2023/12/04 00:30:15;;;;;;;3.55;3.00;;;;;;;21.11;22.88;100498.72;4587017;27;21144;-54
2023/12/04 00:32:26;;;;;;;3.67;2.88;;;;;;;21.10;23.09;100502.78;4586489;27;20115;-55
2023/12/04 00:34:36;;;;;;;3.20;2.63;;;;;;;21.11;23.39;100501.59;4586113;27;30327;-55
2023/12/04 00:36:47;;;;;;;3.55;2.95;;;;;;;21.10;23.02;100485.56;4587032;27;20048;-56
2023/12/04 00:38:57;;;;;;;3.28;2.47;;;;;;;21.09;23.01;100489.63;4567657;27;20028;-56
2023/12/04 00:41:07;;;;;;;3.40;2.90;;;;;;;21.09;23.31;100483.09;4585708;27;20046;-55
2023/12/04 00:43:18;;;;;;;3.50;3.00;;;;;;;21.09;22.93;100489.63;4585319;27;20032;-55
2023/12/04 00:45:28;;;;;;;3.70;3.20;;;;;;;21.09;22.90;100488.81;4569957;27;20527;-54
2023/12/04 00:47:38;;;;;;;3.63;3.10;;;;;;;21.07;23.31;100486.31;4584702;27;20056;-55
2023/12/04 00:49:49;;;;;;;3.53;2.92;;;;;;;21.08;23.29;100490.84;4586083;27;20331;-55
2023/12/04 00:51:59;;;;;;;3.78;3.20;;;;;;;21.08;23.25;100481.41;4587421;27;20040;-54
2023/12/04 00:54:11;;;;;;;3.60;3.10;;;;;;;21.08;23.03;100478.53;4584401;27;24759;-54
2023/12/04 00:56:21;;;;;;;3.85;3.00;;;;;;;21.08;23.31;100482.25;4585478;27;20040;-53
2023/12/04 00:58:32;;;;;;;3.60;2.85;;;;;;;21.08;23.29;100470.75;4584497;27;20044;-54
2023/12/04 01:00:42;;;;;;;3.25;2.83;;;;;;;21.06;22.95;100470.28;4585787;27;20046;-53
2023/12/04 01:02:52;;;;;;;3.50;3.20;;;;;;;21.07;23.17;100468.25;4585584;27;20748;-51
2023/12/04 01:05:03;;;;;;;3.70;2.80;;;;;;;21.06;23.18;100464.56;4586152;27;20404;-52
2023/12/04 01:07:13;;;;;;;3.30;2.90;;;;;;;21.06;23.16;100452.25;4584915;27;20101;-55
2023/12/04 01:09:24;;;;;;;3.42;2.92;;;;;;;21.05;22.97;100464.94;4576796;27;20077;-52
2023/12/04 01:11:36;;;;;;;3.88;2.97;;;;;;;21.06;23.20;100458.00;4584844;27;20531;-52
2023/12/04 01:13:48;;;;;;;3.30;3.00;;;;;;;21.05;23.09;100442.81;4585313;27;20132;-51
2023/12/04 01:15:59;;;;;;;3.00;2.70;;;;;;;21.05;23.03;100448.56;4569786;27;20079;-52
2023/12/04 01:18:09;;;;;;;3.00;2.70;;;;;;;21.03;23.25;100439.47;4585129;27;20047;-52
2023/12/04 01:20:19;;;;;;;3.00;2.65;;;;;;;21.04;23.33;100435.41;4569003;27;20027;-53
2023/12/04 01:22:30;;;;;;;3.00;2.50;;;;;;;21.04;22.97;100443.19;4585548;27;24914;-51
2023/12/04 01:24:40;;;;;;;3.20;2.78;;;;;;;21.04;23.29;100434.59;4585853;27;20095;-53
2023/12/04 01:26:51;;;;;;;3.40;2.83;;;;;;;21.03;23.48;100428.00;4583665;27;20051;-52
2023/12/04 01:29:01;;;;;;;3.00;2.60;;;;;;;21.04;23.01;100428.84;4585060;27;20043;-52
2023/12/04 01:31:11;;;;;;;3.50;2.85;;;;;;;21.04;23.43;100418.19;4584523;27;20067;-54
2023/12/04 01:33:22;;;;;;;3.47;2.80;;;;;;;21.03;23.49;100416.53;4584824;27;20051;-53
2023/12/04 01:35:32;;;;;;;3.45;3.05;;;;;;;21.04;23.04;100421.03;4576298;27;20028;-51
2023/12/04 01:37:42;;;;;;;3.58;2.97;;;;;;;21.03;23.24;100410.78;4575567;27;26319;-53
2023/12/04 01:39:53;;;;;;;3.22;2.78;;;;;;;21.00;23.21;100411.53;4584405;27;20526;-52
2023/12/04 01:42:04;;;;;;;3.45;2.60;;;;;;;21.01;23.09;100410.31;4585078;27;20151;-51
2023/12/04 01:44:14;;;;;;;3.13;2.70;;;;;;;21.01;23.26;100406.63;4585433;27;20036;-51
2023/12/04 01:46:25;;;;;;;3.20;2.55;;;;;;;21.01;23.09;100412.38;4585216;27;20097;-51
2023/12/04 01:48:37;;;;;;;2.97;2.42;;;;;;;21.01;23.57;100416.06;4584952;27;20020;-53
2023/12/04 01:50:48;;;;;;;3.22;2.60;;;;;;;21.01;23.34;100413.19;4584728;27;20076;-55
2023/12/04 01:52:58;;;;;;;3.00;2.58;;;;;;;21.00;23.13;100402.94;4584698;27;20028;-55
2023/12/04 01:55:10;;;;;;;2.92;2.40;;;;;;;21.02;23.18;100405.44;4566805;27;20044;-53
2023/12/04 01:57:21;;;;;;;3.00;2.35;;;;;;;20.99;23.49;100398.41;4585177;27;20051;-52
2023/12/04 01:59:31;;;;;;;2.83;2.53;;;;;;;21.00;23.36;100400.06;4585498;27;20039;-55
2023/12/04 02:01:42;;;;;;;3.03;2.50;;;;;;;21.00;23.42;100394.31;4584451;27;20039;-53
2023/12/04 02:03:54;;;;;;;3.05;2.50;;;;;;;21.01;23.38;100398.03;4585214;27;20497;-51
2023/12/04 02:06:05;;;;;;;2.60;2.40;;;;;;;21.00;23.36;100384.88;4565005;27;20047;-54
2023/12/04 02:08:16;;;;;;;3.20;2.53;;;;;;;21.00;23.14;100394.31;4586118;27;20101;-51
2023/12/04 02:10:26;;;;;;;2.95;2.47;;;;;;;20.99;23.17;100381.19;4584280;27;20072;-52
2023/12/04 02:12:37;;;;;;;2.97;2.50;;;;;;;21.00;23.44;100387.75;4583046;27;20038;-54
2023/12/04 02:14:47;;;;;;;2.47;2.28;;;;;;;21.01;23.36;100380.81;4584133;27;20024;-53
2023/12/04 02:16:59;;;;;;;2.40;2.17;;;;;;;21.00;23.34;100382.00;4585096;27;20059;-52
2023/12/04 02:19:13;;;;;;;2.53;2.22;;;;;;;20.99;23.06;100377.47;4584457;27;20117;-53
2023/12/04 02:21:23;;;;;;;2.90;2.55;;;;;;;20.98;23.04;100379.50;4585059;27;20511;-52
2023/12/04 02:23:34;;;;;;;3.08;2.65;;;;;;;20.99;23.14;100375.44;4583715;27;20369;-51
2023/12/04 02:25:44;;;;;;;2.72;2.40;;;;;;;20.99;22.83;100369.72;4576287;27;20101;-52
2023/12/04 02:27:59;;;;;;;3.22;2.67;;;;;;;20.98;22.96;100368.03;4584179;27;20044;-51
2023/12/04 02:30:12;;;;;;;2.80;2.50;;;;;;;20.98;22.89;100376.63;4585991;27;20028;-51
2023/12/04 02:32:24;;;;;;;4.15;3.03;;;;;;;20.97;22.71;100372.13;4585450;27;20047;-55
2023/12/04 02:34:36;;;;;;;2.80;2.50;;;;;;;20.97;22.50;100366.38;4583859;27;20071;-52
2023/12/04 02:36:46;;;;;;;2.63;2.30;;;;;;;20.98;22.72;100367.22;4584594;27;20028;-51
2023/12/04 02:38:58;;;;;;;2.90;2.50;;;;;;;20.97;22.89;100363.50;4583916;27;21067;-53
2023/12/04 02:41:08;;;;;;;3.83;2.70;;;;;;;20.97;22.99;100352.03;4583589;27;20028;-51
2023/12/04 02:43:19;;;;;;;3.10;2.60;;;;;;;20.96;22.54;100347.50;4585822;27;20032;-54
2023/12/04 02:45:29;;;;;;;2.97;2.60;;;;;;;20.96;22.64;100336.03;4565885;27;20072;-51
2023/12/04 02:47:40;;;;;;;2.97;2.58;;;;;;;20.97;22.52;100331.94;4583263;27;20065;-53
2023/12/04 02:49:50;;;;;;;3.00;2.53;;;;;;;20.97;22.43;100331.09;4584710;27;20507;-51
2023/12/04 02:52:02;;;;;;;2.80;2.50;;;;;;;20.96;22.14;100324.56;4584530;27;20138;-54
2023/12/04 02:54:13;;;;;;;3.30;2.70;;;;;;;20.96;22.44;100327.44;4583560;27;20035;-51
2023/12/04 02:56:23;;;;;;;3.42;2.83;;;;;;;20.95;22.27;100319.97;4565796;27;20040;-51
2023/12/04 02:58:34;;;;;;;3.35;2.90;;;;;;;20.96;22.34;100315.09;4584547;27;20050;-55
2023/12/04 03:00:44;;;;;;;2.97;2.67;;;;;;;20.94;22.00;100320.34;4583683;27;20093;-53
2023/12/04 03:02:55;;;;;;;2.88;2.58;;;;;;;20.97;21.77;100316.75;4586106;27;20098;-52
2023/12/04 03:05:06;;;;;;;2.50;2.30;;;;;;;20.98;22.18;100321.31;4582961;27;20036;-55
2023/12/04 03:07:19;;;;;;;2.80;2.35;;;;;;;20.96;22.12;100313.09;4582811;27;20089;-52
2023/12/04 03:09:30;;;;;;;3.20;2.70;;;;;;;20.97;21.69;100317.59;4582469;27;20041;-53
2023/12/04 03:11:41;;;;;;;2.92;2.63;;;;;;;20.97;22.03;100311.03;4582387;27;20477;-54
2023/12/04 03:13:51;;;;;;;3.00;2.60;;;;;;;20.95;22.03;100305.63;4583752;27;20048;-53
2023/12/04 03:16:02;;;;;;;3.10;2.80;;;;;;;20.96;21.97;100306.47;4582381;27;24201;-51
2023/12/04 03:18:12;;;;;;;3.10;2.80;;;;;;;20.96;21.83;100301.63;4569799;27;20037;-50
2023/12/04 03:20:22;;;;;;;3.00;2.70;;;;;;;20.94;21.63;100298.25;4584344;27;20846;-51
2023/12/04 03:22:33;;;;;;;3.03;2.72;;;;;;;20.93;21.59;100290.81;4583770;27;20086;-51
2023/12/04 03:24:43;;;;;;;3.72;2.85;;;;;;;20.93;21.54;100293.69;4584110;27;20032;-53
2023/12/04 03:26:54;;;;;;;3.33;2.90;;;;;;;20.94;21.62;100298.25;4551376;27;20037;-54
2023/12/04 03:29:04;;;;;;;2.90;2.60;;;;;;;20.93;21.62;100290.81;4567898;27;20035;-52
2023/12/04 03:31:14;;;;;;;3.00;2.60;;;;;;;20.92;21.40;100294.06;4569897;27;20044;-50
2023/12/04 03:33:25;;;;;;;3.00;2.60;;;;;;;20.92;21.38;100288.34;4582999;27;20031;-51
2023/12/04 03:35:35;;;;;;;3.13;2.83;;;;;;;20.92;21.04;100289.19;4584818;27;20047;-54
2023/12/04 03:37:46;;;;;;;2.97;2.67;;;;;;;20.93;21.63;100273.63;4583131;27;26692;-51
2023/12/04 03:39:56;;;;;;;3.38;2.83;;;;;;;20.92;21.38;100274.00;4583687;27;20090;-50
2023/12/04 03:42:06;;;;;;;3.33;2.97;;;;;;;20.91;21.14;100270.31;4584241;27;20097;-51
2023/12/04 03:44:17;;;;;;;3.22;2.50;;;;;;;20.90;21.32;100265.75;4584918;27;20090;-50
2023/12/04 03:46:27;;;;;;;3.17;2.78;;;;;;;20.91;21.33;100266.59;4583992;27;20028;-54
2023/12/04 03:48:38;;;;;;;2.83;2.53;;;;;;;20.91;21.24;100263.72;4583137;27;20048;-52
2023/12/04 03:50:48;;;;;;;3.25;2.72;;;;;;;20.90;21.20;100259.22;4584069;27;23618;-50
2023/12/04 03:52:58;;;;;;;2.95;2.65;;;;;;;20.89;21.00;100255.50;4583847;27;20078;-53
2023/12/04 03:55:09;;;;;;;3.35;2.67;;;;;;;20.90;21.38;100254.28;4565792;27;20140;-53
2023/12/04 03:57:19;;;;;;;3.25;2.85;;;;;;;20.90;21.10;100251.41;4582649;27;20031;-52
2023/12/04 03:59:30;;;;;;;3.20;2.90;;;;;;;20.88;21.21;100248.13;4583907;27;20052;-50
2023/12/04 04:01:40;;;;;;;3.20;2.70;;;;;;;20.88;21.33;100248.13;4586941;27;20032;-50
2023/12/04 04:03:50;;;;;;;3.00;2.50;;;;;;;20.88;21.06;100253.03;4585795;27;21910;-50
2023/12/04 04:06:01;;;;;;;3.00;2.70;;;;;;;20.89;20.98;100252.63;4571203;27;20048;-50
2023/12/04 04:08:11;;;;;;;3.05;2.75;;;;;;;20.89;21.20;100249.78;4587660;27;20392;-53
2023/12/04 04:10:21;;;;;;;3.30;2.80;;;;;;;20.88;21.09;100245.25;4587162;27;20097;-54
2023/12/04 04:12:33;;;;;;;3.00;2.70;;;;;;;20.89;21.42;100237.47;4585679;27;20147;-54
2023/12/04 04:14:43;;;;;;;3.05;2.75;;;;;;;20.89;21.28;100243.19;4587722;27;20043;-55
2023/12/04 04:16:53;;;;;;;3.58;2.80;;;;;;;20.89;21.75;100231.72;4586347;27;20040;-53
2023/12/04 04:19:05;;;;;;;3.10;2.80;;;;;;;20.89;21.41;100231.72;4585917;27;20048;-54
2023/12/04 04:21:16;;;;;;;3.10;2.80;;;;;;;20.88;21.49;100228.03;4586215;27;20023;-54
2023/12/04 04:23:26;;;;;;;3.67;2.85;;;;;;;20.89;21.45;100231.72;4587876;27;20035;-51
2023/12/04 04:25:36;;;;;;;3.00;2.53;;;;;;;20.89;21.64;100226.81;4585622;27;20043;-50
2023/12/04 04:27:47;;;;;;;2.92;2.40;;;;;;;20.89;21.64;100232.56;4570746;27;28276;-51
2023/12/04 04:29:57;;;;;;;3.00;2.53;;;;;;;20.88;21.26;100225.16;4567173;27;20456;-51
2023/12/04 04:32:08;;;;;;;2.90;2.50;;;;;;;20.88;21.63;100219.44;4570497;27;20054;-50
2023/12/04 04:34:21;;;;;;;3.08;2.75;;;;;;;20.88;21.64;100219.44;4586508;27;20511;-53
2023/12/04 04:36:31;;;;;;;3.25;2.95;;;;;;;20.88;21.33;100219.44;4586161;27;20047;-53
2023/12/04 04:38:41;;;;;;;2.70;2.35;;;;;;;20.88;21.56;100218.59;4585510;27;20043;-54
2023/12/04 04:40:52;;;;;;;2.80;2.50;;;;;;;20.88;21.55;100219.44;4585669;27;20090;-54
2023/12/04 04:43:03;;;;;;;3.00;2.70;;;;;;;20.88;21.39;100218.59;4571404;27;20040;-54
2023/12/04 04:45:13;;;;;;;3.22;2.78;;;;;;;20.87;21.14;100212.03;4587258;27;20038;-51
2023/12/04 04:47:23;;;;;;;3.42;2.78;;;;;;;20.87;21.28;100212.03;4585930;27;20389;-51
2023/12/04 04:49:34;;;;;;;2.95;2.63;;;;;;;20.87;21.46;100216.94;4585627;27;20042;-54
2023/12/04 04:51:44;;;;;;;3.15;2.65;;;;;;;20.87;21.46;100214.88;4585925;27;20510;-54
2023/12/04 04:53:55;;;;;;;2.90;2.55;;;;;;;20.87;21.09;100212.03;4571003;27;20040;-51
2023/12/04 04:56:07;;;;;;;3.20;2.78;;;;;;;20.87;20.84;100211.22;4586900;27;20039;-51
2023/12/04 04:58:18;;;;;;;3.10;2.67;;;;;;;20.87;21.29;100211.22;4585257;27;20046;-52
2023/12/04 05:00:28;;;;;;;2.90;2.60;;;;;;;20.88;21.26;100202.22;4584841;27;20035;-53
2023/12/04 05:02:38;;;;;;;2.85;2.40;;;;;;;20.87;21.22;100202.59;4585712;27;20050;-51
2023/12/04 05:04:49;;;;;;;2.40;2.20;;;;;;;20.87;21.08;100212.03;4585868;27;20070;-51
2023/12/04 05:06:59;;;;;;;2.85;2.22;;;;;;;20.86;20.95;100192.31;4584226;27;20048;-51
2023/12/04 05:09:09;;;;;;;2.63;2.05;;;;;;;20.87;21.09;100188.25;4584805;27;20786;-52
2023/12/04 05:11:20;;;;;;;2.35;2.00;;;;;;;20.86;21.06;100193.16;4585297;27;20488;-54
2023/12/04 05:13:30;;;;;;;2.58;2.20;;;;;;;20.87;21.32;100194.81;4585579;27;20102;-51
2023/12/04 05:15:41;;;;;;;2.70;2.30;;;;;;;20.86;21.15;100193.16;4586437;27;20127;-54
2023/12/04 05:17:51;;;;;;;2.40;2.20;;;;;;;20.86;21.32;100187.41;4585614;27;20051;-52
2023/12/04 05:20:02;;;;;;;2.30;2.10;;;;;;;20.87;21.10;100183.34;4585884;27;20052;-52
2023/12/04 05:22:12;;;;;;;2.30;2.10;;;;;;;20.86;20.99;100181.69;4586084;27;20102;-51
2023/12/04 05:24:23;;;;;;;2.38;2.17;;;;;;;20.86;21.02;100175.94;4586408;27;20042;-52
2023/12/04 05:26:33;;;;;;;2.22;2.03;;;;;;;20.85;21.10;100171.44;4585705;27;20055;-53
2023/12/04 05:28:44;;;;;;;2.17;1.98;;;;;;;20.85;21.14;100168.56;4568972;27;20036;-55
2023/12/04 05:30:54;;;;;;;2.47;2.10;;;;;;;20.85;21.16;100171.44;4584938;27;20032;-55
2023/12/04 05:33:04;;;;;;;2.47;2.08;;;;;;;20.85;20.81;100168.56;4586287;27;21248;-55
2023/12/04 05:35:16;;;;;;;2.30;2.10;;;;;;;20.84;20.65;100166.88;4584817;27;20042;-55
2023/12/04 05:37:26;;;;;;;2.92;2.30;;;;;;;20.85;20.92;100159.97;4586034;27;20561;-55
2023/12/04 05:39:37;;;;;;;2.25;2.05;;;;;;;20.85;20.96;100161.97;4585199;27;20031;-55
2023/12/04 05:41:47;;;;;;;2.42;2.20;;;;;;;20.85;20.83;100165.69;4584754;27;23854;-54
2023/12/04 05:43:58;;;;;;;2.72;2.20;;;;;;;20.86;20.88;100163.63;4586315;27;20369;-54
2023/12/04 05:46:08;;;;;;;2.45;2.10;;;;;;;20.84;20.92;100161.16;4585095;27;20488;-55
2023/12/04 05:48:19;;;;;;;2.40;2.20;;;;;;;20.85;20.79;100159.13;4585877;27;20040;-54
2023/12/04 05:50:29;;;;;;;2.75;2.55;;;;;;;20.85;21.01;100157.09;4584726;27;20416;-55
2023/12/04 05:52:39;;;;;;;2.30;2.10;;;;;;;20.85;20.87;100159.97;4586038;27;20047;-55
2023/12/04 05:54:50;;;;;;;2.55;2.35;;;;;;;20.85;20.81;100162.81;4569620;27;26329;-55
2023/12/04 05:57:00;;;;;;;2.45;2.25;;;;;;;20.86;20.94;100163.63;4583930;27;20032;-54
2023/12/04 05:59:11;;;;;;;2.20;2.00;;;;;;;20.85;20.88;100156.25;4584392;27;20036;-55
2023/12/04 06:01:21;;;;;;;2.70;2.22;;;;;;;20.85;21.35;100157.09;4583450;27;20032;-55
2023/12/04 06:03:32;;;;;;;2.20;2.00;;;;;;;20.85;21.15;100151.34;4568958;27;20039;-51
2023/12/04 06:05:42;;;;;;;2.13;1.90;;;;;;;20.84;20.71;100149.66;4570490;27;20037;-54
2023/12/04 06:07:53;;;;;;;2.65;2.30;;;;;;;20.85;21.24;100157.09;4585261;27;20504;-55
2023/12/04 06:10:04;;;;;;;2.40;1.90;;;;;;;20.83;21.07;100151.69;4585615;27;20186;-54
2023/12/04 06:12:15;;;;;;;2.63;1.90;;;;;;;20.83;21.09;100150.88;4585591;27;20039;-54
2023/12/04 06:14:25;;;;;;;2.40;2.10;;;;;;;20.82;20.97;100152.09;4585244;27;20508;-52
2023/12/04 06:16:36;;;;;;;2.08;1.80;;;;;;;20.83;20.54;100138.56;4584438;27;25029;-51
2023/12/04 06:18:46;;;;;;;1.90;1.70;;;;;;;20.82;20.55;100132.00;4584499;27;20125;-53
2023/12/04 06:20:57;;;;;;;2.20;1.88;;;;;;;20.83;20.48;100142.28;4584663;27;20198;-55
2023/12/04 06:23:07;;;;;;;2.08;1.88;;;;;;;20.83;19.99;100135.72;4582391;27;20043;-51
2023/12/04 06:25:18;;;;;;;2.08;1.88;;;;;;;20.83;20.28;100142.28;4583901;27;20119;-54
2023/12/04 06:27:29;;;;;;;2.00;1.80;;;;;;;20.84;20.07;100141.06;4583818;27;20051;-52
2023/12/04 06:29:40;;;;;;;3.15;2.10;;;;;;;20.84;20.16;100138.19;4583756;27;20055;-55
2023/12/04 06:31:50;;;;;;;2.22;2.00;;;;;;;20.83;20.07;100131.63;4583413;27;20036;-52
2023/12/04 06:34:01;;;;;;;2.17;1.90;;;;;;;20.85;19.98;100139.88;4584086;27;20042;-53
2023/12/04 06:36:12;;;;;;;2.10;1.90;;;;;;;20.83;19.99;100139.41;4584670;27;20040;-54
2023/12/04 06:38:25;;;;;;;2.20;2.00;;;;;;;20.84;20.04;100141.06;4584644;27;20508;-51
2023/12/04 06:40:35;;;;;;;2.15;1.95;;;;;;;20.84;20.47;100146.81;4585169;27;20043;-54
2023/12/04 06:42:46;;;;;;;2.22;1.92;;;;;;;20.85;20.23;100151.34;4583877;27;20366;-51
2023/12/04 06:44:57;;;;;;;2.22;1.88;;;;;;;20.83;20.24;100142.28;4585655;27;20470;-51
2023/12/04 06:47:12;;;;;;;2.45;2.20;;;;;;;20.84;20.30;100146.81;4584878;27;20064;-53
2023/12/04 06:49:24;;;;;;;2.20;2.00;;;;;;;20.83;20.41;100143.09;4584575;27;20047;-51
2023/12/04 06:51:35;;;;;;;2.60;2.20;;;;;;;20.82;20.17;100142.66;4584381;27;20590;-53
2023/12/04 06:53:45;;;;;;;2.45;2.25;;;;;;;20.82;19.93;100140.59;4584404;27;20040;-51
2023/12/04 06:55:55;;;;;;;2.25;2.03;;;;;;;20.83;20.11;100153.75;4584088;27;26179;-51
2023/12/04 06:58:06;;;;;;;2.25;2.05;;;;;;;20.83;20.13;100147.19;4584134;27;22781;-52
2023/12/04 07:00:16;;;;;;;2.53;2.30;;;;;;;20.82;20.07;100151.28;4583120;27;20040;-51
2023/12/04 07:02:27;;;;;;;2.70;2.35;;;;;;;20.82;19.92;100142.66;4569437;27;20169;-52
2023/12/04 07:04:37;;;;;;;2.90;2.30;;;;;;;20.82;19.75;100140.59;4586701;27;20032;-52
2023/12/04 07:06:48;;;;;;;2.38;2.08;;;;;;;20.82;19.70;100137.75;4583525;27;20095;-52
2023/12/04 07:08:58;;;;;;;2.10;1.90;;;;;;;20.81;20.00;100133.22;4583578;27;21209;-54
2023/12/04 07:11:09;;;;;;;2.47;2.08;;;;;;;20.82;19.85;100134.06;4584592;27;20067;-54
2023/12/04 07:13:19;;;;;;;2.70;2.30;;;;;;;20.82;19.75;100125.47;4584548;27;20039;-54
2023/12/04 07:15:30;;;;;;;2.92;2.40;;;;;;;20.82;19.86;100125.47;4585119;27;21130;-51
2023/12/04 07:17:40;;;;;;;2.35;2.15;;;;;;;20.82;20.03;100123.41;4581899;27;20055;-51
2023/12/04 07:19:51;;;;;;;2.63;2.20;;;;;;;20.85;20.11;100134.13;4582704;27;20039;-52
2023/12/04 07:22:01;;;;;;;2.30;2.10;;;;;;;20.84;19.87;100129.59;4584006;27;20040;-52
2023/12/04 07:24:12;;;;;;;2.70;2.35;;;;;;;20.83;19.72;100120.16;4584635;27;20031;-55
2023/12/04 07:26:22;;;;;;;2.53;2.22;;;;;;;20.85;19.71;100125.53;4583000;27;20036;-54
2023/12/04 07:28:33;;;;;;;2.10;1.90;;;;;;;20.84;19.72;100118.13;4582508;27;20046;-55
2023/12/04 07:30:44;;;;;;;2.40;2.20;;;;;;;20.85;20.02;100116.94;4583174;27;20047;-55
2023/12/04 07:32:54;;;;;;;2.92;2.50;;;;;;;20.85;20.48;100116.94;4585613;27;20043;-53
2023/12/04 07:35:06;;;;;;;2.80;2.50;;;;;;;20.84;20.35;100115.25;4568790;27;20083;-51
2023/12/04 07:37:16;;;;;;;2.72;2.40;;;;;;;20.85;20.04;100122.66;4588043;27;20160;-55
2023/12/04 07:39:27;;;;;;;2.58;2.38;;;;;;;20.87;20.23;100119.41;4587744;27;20056;-51
2023/12/04 07:41:37;;;;;;;2.80;2.50;;;;;;;20.86;20.40;100109.13;4586897;27;20494;-54
2023/12/04 07:43:48;;;;;;;2.88;2.50;;;;;;;20.86;20.14;100112.00;4586828;27;20050;-54
2023/12/04 07:45:58;;;;;;;2.65;2.45;;;;;;;20.86;20.23;100106.25;4587062;27;20047;-52
2023/12/04 07:48:08;;;;;;;2.85;2.53;;;;;;;20.85;19.98;100105.44;4586538;27;20078;-55
2023/12/04 07:50:19;;;;;;;2.92;2.60;;;;;;;20.86;19.93;100095.63;4586599;27;20095;-55
2023/12/04 07:52:30;;;;;;;2.90;2.60;;;;;;;20.86;20.08;100098.50;4586412;27;20048;-55
2023/12/04 07:54:40;;;;;;;2.90;2.53;;;;;;;20.87;20.04;100100.16;4585997;27;20442;-52
2023/12/04 07:56:50;;;;;;;2.50;2.22;;;;;;;20.88;20.24;100086.63;4587065;27;20520;-52
2023/12/04 07:59:01;;;;;;;2.45;2.13;;;;;;;20.88;20.13;100092.38;4585855;27;20069;-54
2023/12/04 08:01:11;;;;;;;2.50;2.30;;;;;;;20.88;19.95;100080.91;4585841;27;21222;-55
2023/12/04 08:03:23;;;;;;;2.42;2.10;;;;;;;20.87;20.17;100085.81;4587109;27;20039;-52
2023/12/04 08:05:33;;;;;;;2.35;1.98;;;;;;;20.89;19.73;100088.28;4587211;27;20039;-52
2023/12/04 08:07:44;;;;;;;2.13;1.92;;;;;;;20.89;20.05;100092.00;4588100;27;20032;-54
2023/12/04 08:09:55;;;;;;;2.45;2.20;;;;;;;20.90;19.64;100093.63;4585250;27;20123;-53
2023/12/04 08:12:06;;;;;;;2.33;2.10;;;;;;;20.89;19.44;100088.28;4587950;27;20093;-54
2023/12/04 08:14:17;;;;;;;2.10;1.85;;;;;;;20.89;20.08;100077.66;4586752;27;20032;-53
2023/12/04 08:16:28;;;;;;;1.80;1.70;;;;;;;20.89;19.80;100079.69;4587083;27;20119;-52
2023/12/04 08:18:39;;;;;;;2.35;2.00;;;;;;;20.92;19.89;100084.66;4586034;27;20036;-54
2023/12/04 08:20:50;;;;;;;2.10;1.90;;;;;;;20.91;19.74;100086.72;4567391;27;20037;-51
2023/12/04 08:23:00;;;;;;;2.08;1.88;;;;;;;20.90;19.41;100075.63;4585764;27;20032;-54
2023/12/04 08:25:11;;;;;;;2.20;2.00;;;;;;;20.92;19.51;100070.31;4585579;27;20618;-53
2023/12/04 08:27:21;;;;;;;2.92;2.40;;;;;;;20.91;19.45;100069.50;4584946;27;20036;-53
2023/12/04 08:29:32;;;;;;;3.05;2.35;;;;;;;20.89;19.47;100065.34;4585806;27;20067;-52
2023/12/04 08:31:42;;;;;;;3.47;2.78;;;;;;;20.92;19.68;100071.16;4587656;27;20040;-53
2023/12/04 08:33:52;;;;;;;3.22;2.60;;;;;;;20.92;19.62;100059.66;4585660;27;22489;-54
2023/12/04 08:36:03;;;;;;;2.75;2.40;;;;;;;20.93;19.82;100063.38;4585144;27;20040;-53
2023/12/04 08:38:13;;;;;;;2.92;2.63;;;;;;;20.94;19.39;100060.13;4585954;27;20042;-53
2023/12/04 08:40:24;;;;;;;2.90;2.20;;;;;;;20.94;19.74;100050.69;4567109;27;20045;-54
2023/12/04 08:42:34;;;;;;;2.63;2.25;;;;;;;20.96;19.47;100054.00;4566354;27;20129;-54
2023/12/04 08:44:47;;;;;;;3.45;2.80;;;;;;;20.95;19.40;100053.16;4585008;27;20698;-50
2023/12/04 08:46:57;;;;;;;3.47;2.80;;;;;;;20.94;19.74;100053.53;4559618;27;20066;-54
2023/12/04 08:49:08;;;;;;;2.85;2.45;;;;;;;20.94;19.37;100045.78;4569329;27;20566;-54
2023/12/04 08:51:18;;;;;;;2.72;2.33;;;;;;;20.94;19.73;100044.94;4577090;27;20036;-51
2023/12/04 08:53:29;;;;;;;3.60;2.50;;;;;;;20.96;19.45;100043.41;4585450;27;20042;-53
2023/12/04 08:55:39;;;;;;;3.30;2.67;;;;;;;20.95;19.36;100030.22;4587225;27;20033;-55
2023/12/04 08:57:50;;;;;;;3.10;2.45;;;;;;;20.98;19.34;100032.34;4586109;27;20086;-53
2023/12/04 09:00:00;;;;;;;2.85;2.40;;;;;;;21.00;19.35;100029.09;4567213;27;20032;-55
2023/12/04 09:02:10;;;;;;;2.42;2.00;;;;;;;21.01;19.29;100030.75;4583830;27;20040;-54
2023/12/04 09:04:21;;;;;;;2.35;2.15;;;;;;;20.98;19.23;100029.47;4585883;27;20028;-54
2023/12/04 09:06:32;;;;;;;2.30;2.08;;;;;;;20.99;19.91;100024.56;4585657;27;20048;-53
2023/12/04 09:08:43;;;;;;;2.28;2.08;;;;;;;20.97;19.43;100027.81;4584483;27;20036;-52
2023/12/04 09:10:53;;;;;;;2.05;1.85;;;;;;;20.97;19.38;100024.97;4586340;27;20503;-51
2023/12/04 09:13:04;;;;;;;2.20;1.90;;;;;;;20.97;19.52;100027.81;4586037;27;20036;-54
2023/12/04 09:15:14;;;;;;;2.47;2.05;;;;;;;20.98;19.54;100018.00;4570778;27;20123;-55
2023/12/04 09:17:25;;;;;;;3.00;1.90;;;;;;;21.00;19.37;100011.88;4584609;27;20064;-57
2023/12/04 09:19:35;;;;;;;1.90;1.70;;;;;;;21.03;19.46;100017.69;4586698;27;20044;-51
2023/12/04 09:21:46;;;;;;;2.00;1.80;;;;;;;21.06;19.16;100018.97;4586442;27;20480;-52
2023/12/04 09:23:57;;;;;;;1.73;1.63;;;;;;;21.06;19.25;100018.97;4586821;27;20048;-53
2023/12/04 09:26:08;;;;;;;2.00;1.80;;;;;;;21.04;19.05;100015.66;4568962;27;20433;-54
2023/12/04 09:28:18;;;;;;;2.00;1.80;;;;;;;21.08;19.31;100017.34;4585745;27;20222;-52
2023/12/04 09:30:29;;;;;;;2.20;1.90;;;;;;;21.10;19.09;100029.28;4585081;27;20117;-54
2023/12/04 09:32:40;;;;;;;2.42;2.10;;;;;;;21.11;19.37;100033.81;4566045;27;20647;-52
2023/12/04 09:34:50;;;;;;;1.98;1.77;;;;;;;21.11;19.16;100028.06;4576452;27;20054;-53
2023/12/04 09:37:01;;;;;;;2.10;1.83;;;;;;;21.11;19.11;100028.06;4585273;27;20408;-52
2023/12/04 09:39:11;;;;;;;2.00;1.80;;;;;;;21.13;19.10;100031.38;4585687;27;20083;-51
2023/12/04 09:41:22;;;;;;;2.45;1.90;;;;;;;21.12;19.11;100023.97;4569781;27;20036;-53
2023/12/04 09:43:32;;;;;;;2.35;2.08;;;;;;;21.12;18.86;100021.09;4584484;27;20467;-52
2023/12/04 09:45:43;;;;;;;2.70;2.10;;;;;;;21.13;19.44;100017.03;4584588;27;20050;-53
2023/12/04 09:47:54;;;;;;;2.15;1.90;;;;;;;21.15;18.92;100010.91;4584564;27;20374;-52
2023/12/04 09:50:06;;;;;;;3.10;2.10;;;;;;;21.15;19.14;100006.00;4583756;27;20043;-51
2023/12/04 09:52:17;;;;;;;2.30;2.03;;;;;;;21.17;18.84;100015.03;4585347;27;20225;-50
2023/12/04 09:54:29;;;;;;;2.22;2.00;;;;;;;21.16;18.73;100007.66;4583790;27;20024;-54
2023/12/04 09:56:39;;;;;;;2.55;2.30;;;;;;;21.17;19.14;100006.44;4576788;27;20040;-54
2023/12/04 09:58:59;;;;;;;1.98;1.70;;;;;;;21.18;19.20;100005.25;4584849;27;20564;-52
2023/12/04 10:01:11;;;;;;;2.20;1.92;;;;;;;21.19;18.98;100001.13;4583038;27;20965;-54
2023/12/04 10:03:21;;;;;;;2.55;2.20;;;;;;;21.20;18.98;99994.19;4567814;27;20044;-51
2023/12/04 10:05:32;;;;;;;2.78;2.38;;;;;;;21.21;19.23;100003.63;4582622;27;20044;-54
2023/12/04 10:07:42;;;;;;;2.22;2.03;;;;;;;21.22;19.09;99999.53;4568768;27;20060;-53